Pudino, Russia
Current Conditions -  °F | °C
As of 5:30 AM on Monday 26 Jan 2015 (Local Time) from UNNT Reporting Station
Clear Clear  
Wind Chill: -46°   Ceiling: Unl
Heat Index: -27°   Visibility: 4mi
Dew Point: -33°   Wind: 7mph
Humidity: 75%   Direction: 170°S
Pressure: 30.95"   Gusts: NA
Location:  57.57°N, 79.44°E
Report Text: UNNT 252230Z 17003MPS 7000 SKC M33/M36 Q1048 07810160 16810160NOSIG RMK QFE775/1034
Loading
Personal Weather Stations






























Interactive Weather Map New forecast layout! Learn more

10-Day Weather Forecast

Advertisements
Track Severe Weather on mobile